Date,TemperatureHighF,TemperatureAvgF,TemperatureLowF,DewpointHighF,DewpointAvgF,DewpointLowF,HumidityHigh,HumidityAvg,HumidityLow,PressureMaxIn,PressureMinIn,WindSpeedMaxMPH,WindSpeedAvgMPH,GustSpeedMaxMPH,PrecipitationSumIn
2013-9-1,88.0,80.6,72.2,75.0,68.8,61.0,75,68,60,29.92,29.68,10,2,13,0.00
2013-9-2,86.2,73.0,60.0,66.0,61.1,58.0,94,69,41,30.02,29.91,6,1,9,0.00
2013-9-3,88.0,74.1,59.9,67.0,61.6,57.0,96,68,38,30.05,29.93,5,0,9,0.00
2013-9-4,89.7,75.8,60.7,67.0,60.9,55.0,96,63,33,30.08,29.98,3,0,8,0.00
2013-9-5,92.0,80.2,68.1,70.0,64.9,63.0,85,61,39,30.09,29.98,5,0,8,0.00
2013-9-6,95.1,82.6,70.1,70.0,66.4,64.0,83,60,40,30.03,29.87,6,1,9,0.00
2013-9-7,99.2,84.6,71.8,70.0,66.9,64.0,82,58,32,29.91,29.79,7,2,10,0.00
2013-9-8,98.0,85.0,72.3,72.0,65.2,62.0,78,54,31,29.84,29.73,7,2,14,0.00
2013-9-9,93.8,83.0,71.4,68.0,61.5,55.0,71,50,27,29.85,29.77,10,3,21,0.00
2013-9-10,92.9,81.8,72.0,68.0,62.4,58.0,72,53,34,29.99,29.85,13,3,18,0.00
2013-9-11,92.2,81.1,68.8,71.0,63.8,59.0,79,57,38,30.04,29.93,6,1,11,0.00
2013-9-12,79.2,74.1,71.7,72.0,69.7,68.0,94,86,72,30.08,30.00,7,2,11,0.03
2013-9-13,77.1,70.7,66.0,69.0,54.6,51.0,89,58,44,30.10,29.96,8,2,13,0.00
2013-9-14,84.4,72.5,62.3,65.0,58.1,50.0,72,61,50,29.99,29.84,7,1,10,0.00
2013-9-15,89.7,75.5,67.0,70.0,64.7,61.0,93,71,45,30.02,29.84,10,3,20,0.03
2013-9-16,74.8,68.1,65.1,70.0,66.3,63.0,97,93,85,30.12,30.01,7,2,13,0.06
2013-9-17,83.6,73.3,66.2,73.0,68.3,65.0,98,86,62,30.09,29.85,7,1,14,0.17
2013-9-18,91.6,79.6,69.6,72.0,67.1,63.0,91,68,41,29.88,29.71,17,4,23,0.00
2013-9-19,90.5,76.6,66.2,72.0,67.0,65.0,97,74,49,29.91,29.67,10,3,22,0.96
2013-9-20,74.5,64.6,56.1,65.0,55.2,51.0,93,74,45,30.05,29.90,9,3,16,0.00
2013-9-21,80.0,65.9,52.1,60.0,54.9,51.0,98,71,42,30.00,29.85,5,1,9,0.00
2013-9-22,78.0,66.8,55.3,59.0,53.7,50.0,92,65,40,29.90,29.75,7,1,13,0.00
2013-9-23,78.6,68.6,57.2,57.0,53.6,50.0,81,60,45,29.78,29.66,11,2,17,0.00
2013-9-24,78.2,67.6,58.8,59.0,55.3,52.0,89,66,50,29.86,29.73,11,2,19,0.00
2013-9-25,81.4,67.4,52.8,63.0,57.3,52.0,97,73,47,29.89,29.69,6,1,8,0.00
2013-9-26,90.5,76.9,65.9,66.0,59.6,56.0,76,57,35,29.74,29.66,9,2,21,0.00
2013-9-27,86.1,76.6,65.8,67.0,61.7,59.0,80,61,46,29.80,29.68,14,3,23,0.00
2013-9-28,76.8,64.1,51.0,69.0,54.1,44.0,95,73,41,30.07,29.67,10,3,17,0.68
2013-9-29,74.8,59.5,46.0,55.0,47.9,44.0,96,70,37,30.09,29.90,4,0,8,0.00
2013-9-30,79.2,65.8,51.4,57.0,53.1,49.0,92,66,42,29.90,29.75,6,1,12,0.00